Time;durP1;ratioP1;P1;durP2;ratioP2;P2;SDS_P1;SDS_P2;PMS_P1;PMS_P2;Temp;Humidity;BMP_temperature;BMP_pressure;BME280_temperature;BME280_humidity;BME280_pressure;Samples;Min_cycle;Max_cycle;Signal;HPM_P1;HPM_P2
2020/12/14 00:04:20;;;;;;;9.27;8.40;;;8.80;47.40;;;;;;10424640;28;20408;-77
2020/12/14 00:09:23;;;;;;;10.23;9.20;;;8.70;47.50;;;;;;10423690;28;20225;-77
2020/12/14 00:14:25;;;;;;;9.73;8.93;;;8.70;47.70;;;;;;10420554;28;20240;-77
2020/12/14 00:19:29;;;;;;;21.40;7.87;;;8.60;47.60;;;;;;10439075;28;20282;-77
2020/12/14 00:24:31;;;;;;;47.70;8.17;;;8.60;47.40;;;;;;10427783;28;20743;-77
2020/12/14 00:29:33;;;;;;;78.33;7.80;;;8.50;47.40;;;;;;10442216;23;20225;-70
2020/12/14 00:34:36;;;;;;;26.27;7.50;;;8.40;47.20;;;;;;10449081;28;20221;-70
2020/12/14 00:39:39;;;;;;;63.80;8.10;;;8.30;46.80;;;;;;10427524;28;20257;-70
2020/12/14 00:44:41;;;;;;;31.63;7.30;;;8.20;47.00;;;;;;10414153;22;20571;-69
2020/12/14 00:49:44;;;;;;;6.77;6.17;;;8.10;47.00;;;;;;10410723;28;20229;-69
2020/12/14 00:54:47;;;;;;;28.00;5.37;;;8.00;46.70;;;;;;10381164;28;20240;-69
2020/12/14 00:59:49;;;;;;;20.97;5.83;;;7.80;46.70;;;;;;10396556;28;20217;-69
2020/12/14 01:04:52;;;;;;;16.63;5.17;;;7.70;47.10;;;;;;10383304;28;20311;-69
2020/12/14 01:09:54;;;;;;;5.43;5.03;;;7.60;47.50;;;;;;10385605;28;20229;-69
2020/12/14 01:14:56;;;;;;;52.23;5.67;;;7.60;47.80;;;;;;10380494;28;20237;-69
2020/12/14 01:19:59;;;;;;;12.40;5.37;;;7.60;47.80;;;;;;10380911;28;20226;-69
2020/12/14 01:25:01;;;;;;;35.53;5.97;;;7.60;47.60;;;;;;10379951;28;20238;-70
2020/12/14 01:30:04;;;;;;;57.40;6.50;;;7.60;47.60;;;;;;10396332;28;20236;-69
2020/12/14 01:35:07;;;;;;;17.20;5.00;;;7.60;47.50;;;;;;10388283;28;20226;-69
2020/12/14 01:40:09;;;;;;;10.00;4.87;;;7.50;47.30;;;;;;10379348;28;20245;-74
2020/12/14 01:45:11;;;;;;;4.57;4.27;;;7.50;47.50;;;;;;10386949;28;20500;-69
2020/12/14 01:50:17;;;;;;;16.40;4.70;;;7.40;47.40;;;;;;10375610;28;20234;-71
2020/12/14 01:55:21;;;;;;;14.90;5.17;;;7.30;47.50;;;;;;10400408;28;20240;-69
2020/12/14 02:00:23;;;;;;;5.07;4.67;;;7.30;47.60;;;;;;10379909;28;20222;-72
2020/12/14 02:05:26;;;;;;;7.67;5.50;;;7.20;48.00;;;;;;10388091;28;20232;-69
2020/12/14 02:10:28;;;;;;;5.93;5.37;;;7.20;48.10;;;;;;10385637;28;20781;-72
2020/12/14 02:15:30;;;;;;;5.87;5.43;;;7.20;48.20;;;;;;10393938;28;20230;-72
2020/12/14 02:20:33;;;;;;;6.00;5.57;;;7.30;48.50;;;;;;10384303;28;20229;-69
2020/12/14 02:25:36;;;;;;;5.43;5.03;;;7.30;48.60;;;;;;10378099;28;20221;-72
2020/12/14 02:30:39;;;;;;;6.50;5.90;;;7.40;49.50;;;;;;10378744;28;20229;-69
2020/12/14 02:35:45;;;;;;;5.93;5.43;;;7.40;48.70;;;;;;10387642;28;20218;-69
2020/12/14 02:40:48;;;;;;;6.10;5.60;;;7.40;48.80;;;;;;10383746;28;20222;-72
2020/12/14 02:45:51;;;;;;;6.50;6.00;;;7.50;48.90;;;;;;10380566;28;20249;-72
2020/12/14 02:50:54;;;;;;;5.83;5.33;;;7.60;48.90;;;;;;10380982;28;20702;-72
2020/12/14 02:55:57;;;;;;;5.47;4.97;;;7.60;48.90;;;;;;10388549;28;20221;-72
2020/12/14 03:00:59;;;;;;;6.33;5.83;;;7.70;48.90;;;;;;10380866;28;20328;-69
2020/12/14 03:06:01;;;;;;;6.53;6.03;;;7.70;49.00;;;;;;10376587;28;20568;-69
2020/12/14 03:11:04;;;;;;;6.50;6.00;;;7.70;49.00;;;;;;10374291;28;20230;-69
2020/12/14 03:16:07;;;;;;;6.70;6.20;;;7.70;49.00;;;;;;10373410;28;20226;-72
2020/12/14 03:21:09;;;;;;;6.60;6.10;;;7.80;49.10;;;;;;10385207;28;20232;-69
2020/12/14 03:26:15;;;;;;;6.17;5.67;;;7.80;49.10;;;;;;10380994;28;20588;-72
2020/12/14 03:31:17;;;;;;;7.60;7.00;;;7.80;49.30;;;;;;10379345;28;20239;-71
2020/12/14 03:36:20;;;;;;;6.87;6.07;;;7.90;49.20;;;;;;10388572;28;20253;-69
2020/12/14 03:41:24;;;;;;;6.43;5.83;;;7.90;49.20;;;;;;10375029;28;20232;-69
2020/12/14 03:46:28;;;;;;;6.23;5.47;;;8.00;49.20;;;;;;10390497;28;20666;-69
2020/12/14 03:51:31;;;;;;;6.00;5.40;;;8.00;49.00;;;;;;10389412;28;20230;-73
2020/12/14 03:56:34;;;;;;;7.60;7.00;;;8.00;48.90;;;;;;10379870;28;20223;-69
2020/12/14 04:01:36;;;;;;;7.57;6.87;;;8.00;49.00;;;;;;10387826;28;20230;-69
2020/12/14 04:06:38;;;;;;;6.67;6.17;;;8.00;49.00;;;;;;10387921;28;20645;-69
2020/12/14 04:11:41;;;;;;;6.67;6.17;;;8.00;49.30;;;;;;10391996;28;20234;-72
2020/12/14 04:16:44;;;;;;;7.37;6.77;;;8.00;49.60;;;;;;10392703;28;20226;-72
2020/12/14 04:21:47;;;;;;;7.03;6.43;;;8.00;49.60;;;;;;10388332;28;20230;-72
2020/12/14 04:26:52;;;;;;;9.23;8.53;;;8.10;50.00;;;;;;10381383;28;20313;-72
2020/12/14 04:31:55;;;;;;;7.07;6.50;;;8.10;50.20;;;;;;10380267;28;20709;-72
2020/12/14 04:36:57;;;;;;;7.27;6.67;;;8.20;50.00;;;;;;10392416;28;20222;-69
2020/12/14 04:42:00;;;;;;;7.03;6.43;;;8.20;49.90;;;;;;10391732;28;20237;-69
2020/12/14 04:47:03;;;;;;;6.63;6.13;;;8.30;50.00;;;;;;10388323;28;20232;-71
2020/12/14 04:52:05;;;;;;;6.80;6.30;;;8.30;49.70;;;;;;10386409;28;20748;-69
2020/12/14 04:57:13;;;;;;;6.43;5.93;;;8.30;49.70;;;;;;10401583;28;20313;-72
2020/12/14 05:02:15;;;;;;;6.67;6.17;;;8.30;49.80;;;;;;10391281;28;20257;-69
2020/12/14 05:07:17;;;;;;;6.50;6.00;;;8.30;49.80;;;;;;10388170;28;20729;-72
2020/12/14 05:12:25;;;;;;;7.37;6.77;;;8.30;49.60;;;;;;10383603;28;20233;-69
2020/12/14 05:17:27;;;;;;;6.77;6.27;;;8.40;49.60;;;;;;10390409;28;20222;-72
2020/12/14 05:22:29;;;;;;;7.03;6.43;;;8.40;49.50;;;;;;10390353;28;20605;-69
2020/12/14 05:27:34;;;;;;;7.60;7.00;;;8.40;49.50;;;;;;10386563;28;21118;-69
2020/12/14 05:32:36;;;;;;;7.33;6.73;;;8.40;49.40;;;;;;10380143;28;20222;-72
2020/12/14 05:37:40;;;;;;;8.17;7.47;;;8.40;49.40;;;;;;10393074;28;20219;-71
2020/12/14 05:42:44;;;;;;;7.27;6.57;;;8.40;49.30;;;;;;10395539;28;20749;-72
2020/12/14 05:47:46;;;;;;;7.33;6.73;;;8.40;49.30;;;;;;10385088;28;20226;-72
2020/12/14 05:52:51;;;;;;;7.43;6.83;;;8.40;49.30;;;;;;10388753;28;20275;-72
2020/12/14 05:58:01;;;;;;;6.97;6.37;;;8.40;49.30;;;;;;10382789;28;20228;-72
2020/12/14 06:03:06;;;;;;;6.80;6.30;;;8.40;49.20;;;;;;10389009;28;20228;-71
2020/12/14 06:08:36;;;;;;;7.90;7.20;;;8.40;49.20;;;;;;10392732;28;20313;-71
2020/12/14 06:13:48;;;;;;;7.40;6.80;;;8.30;49.30;;;;;;10385775;28;20244;-72
2020/12/14 06:18:50;;;;;;;7.07;6.47;;;8.30;49.30;;;;;;10369737;28;20236;-72
2020/12/14 06:23:54;;;;;;;6.63;6.13;;;8.30;49.30;;;;;;10385073;28;20257;-73
2020/12/14 06:28:57;;;;;;;6.70;6.20;;;8.30;49.30;;;;;;10374677;28;20236;-69
2020/12/14 06:34:03;;;;;;;6.67;6.17;;;8.30;49.30;;;;;;10380064;28;20229;-69
2020/12/14 06:39:25;;;;;;;7.73;6.80;;;8.30;49.20;;;;;;10380362;28;20951;-72
2020/12/14 06:44:28;;;;;;;10.77;6.80;;;8.30;49.30;;;;;;10382826;28;20652;-69
2020/12/14 06:49:31;;;;;;;7.80;7.10;;;8.30;49.20;;;;;;10415647;23;20830;-70
2020/12/14 06:54:39;;;;;;;7.50;6.80;;;8.30;49.00;;;;;;10431858;28;20857;-70
2020/12/14 06:59:50;;;;;;;8.27;7.50;;;8.30;48.80;;;;;;10440477;28;20231;-70
2020/12/14 07:04:53;;;;;;;7.93;7.23;;;8.20;48.80;;;;;;10440140;28;20233;-70
2020/12/14 07:10:09;;;;;;;8.00;7.13;;;8.20;49.00;;;;;;10434806;28;20228;-69
2020/12/14 07:15:24;;;;;;;7.80;7.20;;;8.20;48.70;;;;;;10429031;28;20691;-70
2020/12/14 07:20:27;;;;;;;7.97;7.27;;;8.20;48.60;;;;;;10434396;28;20224;-70
2020/12/14 07:25:32;;;;;;;8.20;7.50;;;8.20;48.60;;;;;;10430027;28;20235;-70
2020/12/14 07:30:35;;;;;;;8.33;7.63;;;8.10;48.30;;;;;;10435194;28;20271;-70
2020/12/14 07:35:39;;;;;;;11.77;8.13;;;8.10;48.50;;;;;;10438102;28;20789;-70
2020/12/14 07:40:41;;;;;;;8.80;8.00;;;8.00;48.30;;;;;;10436085;28;21050;-74
2020/12/14 07:45:44;;;;;;;8.47;7.57;;;8.00;48.40;;;;;;10441835;28;20309;-74
2020/12/14 07:50:46;;;;;;;8.63;7.83;;;7.90;48.60;;;;;;10443496;28;20312;-74
2020/12/14 07:55:48;;;;;;;9.33;8.37;;;7.90;48.70;;;;;;10440182;28;20218;-74
2020/12/14 08:00:52;;;;;;;9.13;8.17;;;7.80;48.70;;;;;;10425616;28;20248;-68
2020/12/14 08:05:54;;;;;;;9.70;8.80;;;7.80;48.90;;;;;;10419114;28;20217;-68
2020/12/14 08:10:57;;;;;;;9.70;8.80;;;7.90;48.90;;;;;;10429771;28;20232;-68
2020/12/14 08:16:03;;;;;;;10.27;9.37;;;7.80;48.60;;;;;;10427483;28;20229;-68
2020/12/14 08:21:05;;;;;;;10.70;9.70;;;7.80;48.60;;;;;;10423262;28;20229;-68
2020/12/14 08:26:14;;;;;;;12.93;11.73;;;7.80;48.60;;;;;;10431037;28;20316;-68
2020/12/14 08:31:17;;;;;;;12.73;11.63;;;7.80;48.60;;;;;;10435017;28;20222;-68
2020/12/14 08:36:20;;;;;;;13.50;12.27;;;7.80;48.50;;;;;;10438526;28;20934;-68
2020/12/14 08:41:23;;;;;;;15.33;13.73;;;7.70;48.60;;;;;;10425001;28;20232;-68
2020/12/14 08:46:29;;;;;;;14.40;12.97;;;7.70;48.60;;;;;;10440279;28;20438;-68
2020/12/14 08:51:33;;;;;;;14.43;13.10;;;7.60;48.40;;;;;;10433039;28;20280;-68
2020/12/14 08:56:35;;;;;;;13.70;12.47;;;7.60;49.30;;;;;;10431301;28;20226;-75
2020/12/14 09:01:39;;;;;;;13.40;12.10;;;7.50;48.60;;;;;;10420237;28;20713;-76
2020/12/14 09:06:42;;;;;;;13.53;12.23;;;7.50;48.60;;;;;;10439800;28;20244;-75
2020/12/14 09:11:51;;;;;;;13.27;12.10;;;7.50;48.60;;;;;;10422399;28;20232;-76
2020/12/14 09:16:56;;;;;;;12.20;11.10;;;7.50;49.00;;;;;;10439152;28;20594;-75
2020/12/14 09:21:59;;;;;;;12.33;11.13;;;7.50;48.90;;;;;;10429328;28;20578;-75
2020/12/14 09:27:07;;;;;;;12.77;11.57;;;7.50;49.20;;;;;;10433390;28;20216;-74
2020/12/14 09:32:11;;;;;;;13.03;11.83;;;7.50;48.80;;;;;;10430330;28;20225;-74
2020/12/14 09:37:13;;;;;;;12.40;11.30;;;7.50;48.70;;;;;;10417422;28;20217;-75
2020/12/14 09:42:16;;;;;;;12.40;11.20;;;7.60;48.80;;;;;;10427188;28;20225;-75
2020/12/14 09:47:19;;;;;;;12.93;11.83;;;7.50;48.80;;;;;;10441701;28;20235;-74
2020/12/14 09:52:21;;;;;;;11.53;10.53;;;7.50;48.70;;;;;;10434767;28;20264;-75
2020/12/14 09:57:23;;;;;;;11.93;10.93;;;7.50;48.60;;;;;;10434936;28;20627;-75
2020/12/14 10:02:26;;;;;;;11.13;10.17;;;7.50;48.80;;;;;;10427834;28;20226;-74
2020/12/14 10:07:43;;;;;;;10.00;9.20;;;7.50;48.90;;;;;;10436095;28;20228;-76
2020/12/14 10:12:46;;;;;;;9.63;8.83;;;7.50;49.00;;;;;;10441125;28;20221;-75
2020/12/14 10:17:49;;;;;;;9.40;8.60;;;7.50;48.90;;;;;;10429969;28;20220;-75
2020/12/14 10:22:51;;;;;;;8.50;7.40;;;7.50;48.80;;;;;;10431135;28;20237;-75
2020/12/14 10:27:54;;;;;;;7.90;7.20;;;7.50;48.90;;;;;;10426310;28;20224;-75
2020/12/14 10:32:57;;;;;;;8.73;7.93;;;7.50;48.80;;;;;;10422702;28;20316;-75
2020/12/14 10:37:59;;;;;;;8.33;7.63;;;7.50;48.70;;;;;;10429594;28;20697;-75
2020/12/14 10:43:01;;;;;;;8.60;7.80;;;7.50;48.80;;;;;;10440139;28;20229;-73
2020/12/14 10:48:05;;;;;;;8.67;7.87;;;7.50;48.80;;;;;;10432595;28;20284;-73
2020/12/14 10:53:07;;;;;;;8.93;8.13;;;7.50;48.70;;;;;;10425090;28;20772;-73
2020/12/14 10:58:09;;;;;;;9.13;8.30;;;7.50;48.60;;;;;;10434912;28;20688;-69
2020/12/14 11:03:12;;;;;;;8.97;8.17;;;7.50;48.80;;;;;;10423953;28;20233;-69
2020/12/14 11:08:14;;;;;;;8.97;8.17;;;7.50;48.80;;;;;;10423399;28;20235;-69
2020/12/14 11:13:16;;;;;;;9.00;8.10;;;7.60;48.90;;;;;;10430163;28;20587;-68
2020/12/14 11:18:19;;;;;;;8.43;7.73;;;7.50;48.90;;;;;;10447585;28;20251;-68
2020/12/14 11:23:21;;;;;;;9.20;8.40;;;7.60;48.80;;;;;;10443786;28;20576;-68
2020/12/14 11:28:27;;;;;;;9.60;8.70;;;7.60;48.90;;;;;;10441211;28;20357;-68
2020/12/14 11:33:30;;;;;;;10.30;9.40;;;7.60;48.80;;;;;;10444207;28;20241;-68
2020/12/14 11:38:33;;;;;;;10.27;9.37;;;7.70;48.70;;;;;;10417521;28;20228;-68
2020/12/14 11:43:35;;;;;;;10.60;9.63;;;7.70;48.60;;;;;;10442249;28;20229;-68
2020/12/14 11:48:38;;;;;;;10.93;10.00;;;7.70;48.60;;;;;;10442734;28;20229;-68
2020/12/14 11:53:40;;;;;;;11.30;10.27;;;7.70;48.60;;;;;;10427435;28;20225;-68
2020/12/14 11:58:42;;;;;;;10.67;9.77;;;7.70;48.90;;;;;;10440219;28;20229;-68
2020/12/14 12:03:46;;;;;;;10.60;9.67;;;7.80;48.90;;;;;;10430571;28;20223;-68
2020/12/14 12:08:48;;;;;;;9.40;8.60;;;7.80;48.70;;;;;;10433779;28;20231;-68
2020/12/14 12:13:51;;;;;;;9.03;8.23;;;7.90;48.80;;;;;;10436018;28;20218;-68
2020/12/14 12:18:54;;;;;;;8.87;8.17;;;7.90;48.40;;;;;;10431075;28;20225;-68
2020/12/14 12:23:56;;;;;;;8.73;8.03;;;7.90;48.50;;;;;;10445355;28;20213;-68
2020/12/14 12:28:58;;;;;;;8.47;7.77;;;8.00;48.40;;;;;;10437902;28;20217;-68
2020/12/14 12:34:01;;;;;;;8.33;7.63;;;8.00;48.40;;;;;;10422473;28;20229;-68
2020/12/14 12:39:03;;;;;;;7.67;7.07;;;8.00;48.50;;;;;;10427552;28;20248;-68
2020/12/14 12:44:06;;;;;;;7.63;7.03;;;8.10;48.60;;;;;;10435849;28;20226;-68
2020/12/14 12:49:09;;;;;;;8.77;8.07;;;8.10;48.50;;;;;;10445675;22;20208;-69
2020/12/14 12:54:11;;;;;;;8.50;7.70;;;8.20;48.20;;;;;;10402144;28;20228;-69
2020/12/14 12:59:13;;;;;;;7.73;7.13;;;8.20;48.60;;;;;;10398470;28;20222;-69
2020/12/14 13:04:16;;;;;;;7.70;7.00;;;8.30;48.30;;;;;;10393764;28;20226;-72
2020/12/14 13:09:19;;;;;;;9.07;8.37;;;8.30;48.10;;;;;;10385774;28;20607;-72
2020/12/14 13:14:21;;;;;;;8.83;8.03;;;8.30;48.10;;;;;;10382472;28;20229;-69
2020/12/14 13:19:24;;;;;;;8.20;7.57;;;8.40;48.10;;;;;;10383978;28;20233;-69
2020/12/14 13:24:26;;;;;;;7.37;6.77;;;8.30;48.10;;;;;;10379103;28;20229;-69
2020/12/14 13:29:29;;;;;;;6.37;5.80;;;8.40;48.20;;;;;;10381335;28;20249;-69
2020/12/14 13:34:32;;;;;;;6.03;5.53;;;8.30;48.10;;;;;;10384261;28;20226;-69
2020/12/14 13:39:34;;;;;;;6.00;5.60;;;8.30;47.90;;;;;;10380944;28;20317;-69
2020/12/14 13:44:36;;;;;;;6.37;5.87;;;8.30;47.90;;;;;;10391132;28;20236;-69
2020/12/14 13:49:39;;;;;;;6.50;5.60;;;8.30;48.00;;;;;;10379455;28;20236;-72
2020/12/14 13:54:41;;;;;;;5.80;5.30;;;8.30;48.00;;;;;;10385181;28;20321;-72
2020/12/14 13:59:44;;;;;;;6.70;6.10;;;8.40;48.10;;;;;;10378313;28;20250;-69
2020/12/14 14:04:48;;;;;;;6.77;6.07;;;8.30;47.90;;;;;;10383122;28;20257;-69
2020/12/14 14:09:50;;;;;;;5.50;5.00;;;8.30;47.80;;;;;;10386752;28;20317;-73
2020/12/14 14:14:52;;;;;;;7.37;6.73;;;8.30;48.10;;;;;;10381016;28;20218;-73
2020/12/14 14:19:55;;;;;;;7.57;6.87;;;8.40;48.00;;;;;;10380516;28;20667;-73
2020/12/14 14:24:57;;;;;;;6.97;6.37;;;8.40;48.00;;;;;;10371210;28;20237;-73
2020/12/14 14:30:00;;;;;;;7.37;6.67;;;8.40;48.00;;;;;;10385253;28;20234;-73
2020/12/14 14:35:03;;;;;;;7.10;6.50;;;8.50;48.10;;;;;;10387701;28;20242;-73
2020/12/14 14:40:06;;;;;;;9.00;7.87;;;8.60;48.10;;;;;;10381400;28;20710;-69
2020/12/14 14:45:08;;;;;;;8.37;7.33;;;8.60;48.70;;;;;;10383181;28;20737;-69
2020/12/14 14:50:11;;;;;;;8.97;7.20;;;8.60;47.90;;;;;;10389303;28;20689;-73
2020/12/14 14:55:13;;;;;;;7.20;6.50;;;8.70;47.90;;;;;;10376695;28;20226;-73
2020/12/14 15:00:16;;;;;;;6.17;5.67;;;8.70;47.90;;;;;;10377503;28;20600;-73
2020/12/14 15:05:27;;;;;;;5.67;5.17;;;8.70;47.80;;;;;;10376030;28;20214;-73
2020/12/14 15:10:29;;;;;;;5.37;4.87;;;8.80;47.70;;;;;;10387149;28;20221;-73
2020/12/14 15:15:32;;;;;;;7.00;6.00;;;8.80;47.60;;;;;;10387092;28;20222;-73
2020/12/14 15:20:36;;;;;;;6.40;5.87;;;8.70;47.40;;;;;;10380695;28;20600;-73
2020/12/14 15:25:40;;;;;;;8.87;6.20;;;8.80;47.00;;;;;;10377115;28;20215;-73
2020/12/14 15:30:42;;;;;;;6.63;6.03;;;8.80;47.00;;;;;;10389762;28;20221;-73
2020/12/14 15:35:48;;;;;;;6.37;5.70;;;8.80;47.10;;;;;;10382018;28;20218;-73
2020/12/14 15:40:51;;;;;;;6.97;6.37;;;8.70;46.70;;;;;;10382253;28;20705;-73
2020/12/14 15:45:53;;;;;;;7.77;7.07;;;8.70;46.80;;;;;;10378780;28;20588;-73
2020/12/14 15:50:56;;;;;;;8.23;7.43;;;8.60;46.80;;;;;;10381905;28;20218;-73
2020/12/14 15:55:58;;;;;;;8.23;7.40;;;8.60;46.80;;;;;;10394711;28;20222;-72
2020/12/14 16:01:00;;;;;;;10.33;9.23;;;8.50;46.70;;;;;;10392510;28;20222;-72
2020/12/14 16:06:04;;;;;;;10.20;9.17;;;8.50;46.60;;;;;;10394354;28;20296;-73
2020/12/14 16:11:06;;;;;;;9.17;8.37;;;8.40;46.50;;;;;;10388204;28;20233;-69
2020/12/14 16:16:12;;;;;;;11.00;9.90;;;8.40;46.50;;;;;;10391977;28;20227;-69
2020/12/14 16:21:19;;;;;;;10.40;9.30;;;8.30;46.50;;;;;;10387089;28;20231;-74
2020/12/14 16:26:21;;;;;;;10.07;9.07;;;8.30;46.50;;;;;;10391119;28;20312;-73
2020/12/14 16:31:24;;;;;;;8.73;7.93;;;8.20;46.60;;;;;;10402588;28;20605;-73
2020/12/14 16:36:27;;;;;;;8.80;7.90;;;8.20;46.50;;;;;;10400753;28;20317;-69
2020/12/14 16:41:29;;;;;;;7.53;6.33;;;8.20;46.40;;;;;;10387806;28;20230;-69
2020/12/14 16:46:31;;;;;;;9.20;7.50;;;8.20;46.50;;;;;;10382354;28;20226;-73
2020/12/14 16:51:34;;;;;;;7.73;7.03;;;8.10;46.50;;;;;;10391234;28;20241;-68
2020/12/14 16:56:36;;;;;;;8.23;7.37;;;8.10;46.20;;;;;;10403546;28;20744;-69
2020/12/14 17:01:39;;;;;;;10.40;9.43;;;8.00;46.10;;;;;;10381811;28;20230;-74
2020/12/14 17:06:43;;;;;;;11.20;10.10;;;8.00;46.20;;;;;;10388847;28;20741;-74
2020/12/14 17:11:46;;;;;;;13.00;11.13;;;7.90;47.70;;;;;;10381097;28;20225;-74
2020/12/14 17:16:49;;;;;;;11.60;10.13;;;8.00;47.60;;;;;;10392321;28;20238;-74
2020/12/14 17:21:52;;;;;;;9.53;8.53;;;8.00;47.20;;;;;;10387609;28;20238;-70
2020/12/14 17:26:54;;;;;;;8.83;7.97;;;8.10;46.90;;;;;;10400658;28;20222;-73
2020/12/14 17:31:57;;;;;;;7.73;6.73;;;8.10;46.90;;;;;;10390709;28;20701;-70
2020/12/14 17:37:00;;;;;;;7.77;7.07;;;8.10;46.60;;;;;;10390108;28;20323;-70
2020/12/14 17:42:02;;;;;;;7.67;6.97;;;8.10;46.50;;;;;;10393075;28;20236;-73
2020/12/14 17:47:05;;;;;;;7.53;6.83;;;8.10;46.50;;;;;;10391838;28;20229;-73
2020/12/14 17:52:08;;;;;;;7.77;7.07;;;8.00;46.20;;;;;;10392955;28;20225;-72
2020/12/14 17:57:10;;;;;;;8.00;7.10;;;8.00;46.20;;;;;;10391523;28;20229;-72
2020/12/14 18:02:13;;;;;;;8.17;7.37;;;8.00;46.30;;;;;;10393484;28;20231;-73
2020/12/14 18:07:16;;;;;;;7.70;7.00;;;8.00;46.10;;;;;;10390295;28;20316;-74
2020/12/14 18:12:18;;;;;;;7.30;6.60;;;7.90;45.70;;;;;;10386589;28;20325;-70
2020/12/14 18:17:22;;;;;;;8.07;7.27;;;7.90;46.00;;;;;;10382605;28;20241;-71
2020/12/14 18:22:26;;;;;;;8.23;7.43;;;7.80;46.00;;;;;;10381571;28;20230;-70
2020/12/14 18:27:28;;;;;;;9.00;7.50;;;7.80;45.90;;;;;;10390808;28;20226;-71
2020/12/14 21:25:21;;;;;;;14.37;12.97;;;7.40;48.30;;;;;;10371600;28;20229;-71
2020/12/14 21:30:24;;;;;;;13.03;11.93;;;7.40;48.40;;;;;;10378177;28;20238;-71
2020/12/14 21:35:27;;;;;;;13.90;12.63;;;7.40;48.50;;;;;;10372939;28;20227;-71
2020/12/14 21:40:29;;;;;;;12.70;11.53;;;7.40;48.60;;;;;;10383799;28;20249;-71
2020/12/14 21:45:32;;;;;;;13.40;12.10;;;7.40;48.40;;;;;;10378973;28;20222;-74
2020/12/14 21:50:35;;;;;;;13.73;12.43;;;7.50;48.50;;;;;;10364286;28;20227;-71
2020/12/14 21:55:37;;;;;;;12.37;11.17;;;7.50;49.10;;;;;;10364919;28;20222;-70
2020/12/14 22:00:40;;;;;;;11.87;10.77;;;7.60;48.30;;;;;;10360696;28;20285;-70
2020/12/14 22:05:45;;;;;;;12.40;11.20;;;7.60;48.30;;;;;;10364798;28;20245;-71
2020/12/14 22:10:47;;;;;;;12.80;11.60;;;7.60;48.30;;;;;;10370671;28;20271;-71
2020/12/14 22:15:49;;;;;;;12.20;11.10;;;7.70;48.20;;;;;;10376810;28;20229;-71
2020/12/14 22:20:52;;;;;;;12.87;11.57;;;7.70;48.30;;;;;;10348666;28;20834;-71
2020/12/14 22:25:54;;;;;;;12.53;11.33;;;7.80;48.40;;;;;;10367083;28;20301;-71
2020/12/14 22:30:57;;;;;;;13.53;12.30;;;7.80;48.10;;;;;;10354710;28;20235;-71
2020/12/14 22:36:00;;;;;;;13.23;12.03;;;7.80;48.10;;;;;;10365570;28;20215;-71
2020/12/14 22:41:03;;;;;;;12.27;11.07;;;7.80;48.10;;;;;;10386900;28;20318;-71
2020/12/14 22:46:06;;;;;;;11.60;10.53;;;7.80;48.10;;;;;;10373453;28;20231;-71
2020/12/14 22:51:14;;;;;;;47.30;32.57;;;7.80;48.10;;;;;;10375929;28;20729;-70
2020/12/14 22:56:16;;;;;;;17.13;15.10;;;7.90;48.10;;;;;;10363046;28;20773;-70
2020/12/14 23:01:21;;;;;;;14.80;13.40;;;7.80;48.00;;;;;;10359043;28;20317;-70
2020/12/14 23:06:24;;;;;;;14.67;13.17;;;7.90;48.00;;;;;;10361599;28;20229;-71
2020/12/14 23:11:26;;;;;;;13.60;12.30;;;7.80;48.00;;;;;;10380774;28;20236;-71
2020/12/14 23:16:29;;;;;;;12.50;11.30;;;7.90;48.10;;;;;;10376002;28;20221;-71
2020/12/14 23:21:33;;;;;;;14.30;12.80;;;7.80;48.10;;;;;;10405335;22;20280;-76
2020/12/14 23:26:35;;;;;;;13.57;12.27;;;7.90;48.10;;;;;;10364460;28;20236;-76
2020/12/14 23:31:44;;;;;;;11.57;10.47;;;7.90;48.10;;;;;;10365097;28;20501;-71
2020/12/14 23:36:49;;;;;;;14.60;13.27;;;7.90;48.10;;;;;;10358691;28;20223;-71
2020/12/14 23:41:51;;;;;;;12.93;11.70;;;7.90;48.00;;;;;;10370428;28;20222;-71
2020/12/14 23:46:53;;;;;;;15.20;13.70;;;7.90;47.80;;;;;;10371539;28;20223;-76
2020/12/14 23:51:58;;;;;;;15.07;13.67;;;7.90;47.90;;;;;;10373340;28;20718;-72
2020/12/14 23:57:01;;;;;;;13.57;12.27;;;7.90;47.90;;;;;;10363726;28;20228;-72
